Time;durP1;ratioP1;P1;durP2;ratioP2;P2;SDS_P1;SDS_P2;PMS_P1;PMS_P2;Temp;Humidity;BMP_temperature;BMP_pressure;BME280_temperature;BME280_humidity;BME280_pressure;Samples;Min_cycle;Max_cycle;Signal;HPM_P1;HPM_P2
2021/01/08 00:01:56;;;;;;;28.40;15.37;;;;;;;6.26;100.00;94528.53;5095147;28;20939;-86
2021/01/08 00:04:22;;;;;;;34.63;17.07;;;;;;;6.24;100.00;94509.59;5095082;28;20444;-85
2021/01/08 00:06:55;;;;;;;25.33;14.73;;;;;;;6.12;100.00;94521.75;5095824;28;20476;-86
2021/01/08 00:09:21;;;;;;;21.30;15.43;;;;;;;6.25;100.00;94527.72;5106895;28;20436;-86
2021/01/08 00:11:53;;;;;;;23.33;15.20;;;;;;;6.35;100.00;94530.47;5110167;28;20528;-84
2021/01/08 00:14:20;;;;;;;21.87;14.83;;;;;;;6.44;100.00;94519.38;5106007;28;20439;-86
2021/01/08 00:16:47;;;;;;;19.97;14.17;;;;;;;6.46;100.00;94518.31;5102540;28;20450;-85
2021/01/08 00:19:13;;;;;;;23.07;14.70;;;;;;;6.47;100.00;94527.78;5059448;28;20436;-86
2021/01/08 00:21:43;;;;;;;22.50;14.37;;;;;;;6.48;100.00;94506.00;5094817;28;20987;-86
2021/01/08 00:24:10;;;;;;;37.73;22.17;;;;;;;6.48;100.00;94506.00;5094486;28;20440;-86
2021/01/08 00:26:37;;;;;;;28.40;17.67;;;;;;;6.55;100.00;94521.16;5095031;28;20930;-86
2021/01/08 00:29:04;;;;;;;30.40;17.67;;;;;;;6.53;100.00;94487.41;5094757;28;20446;-85
2021/01/08 00:31:39;;;;;;;32.73;20.60;;;;;;;6.51;100.00;94508.38;5094680;28;20529;-87
2021/01/08 00:34:06;;;;;;;30.63;17.80;;;;;;;6.58;100.00;94502.69;5059700;28;20458;-86
2021/01/08 00:36:33;;;;;;;26.87;15.50;;;;;;;6.52;99.63;94488.34;5094422;28;20532;-87
2021/01/08 00:38:59;;;;;;;26.60;16.20;;;;;;;6.59;99.71;94502.56;5094674;28;20439;-87
2021/01/08 00:41:30;;;;;;;27.80;15.77;;;;;;;6.64;100.00;94510.88;5094517;28;20957;-86
2021/01/08 00:43:56;;;;;;;34.07;16.63;;;;;;;6.59;99.82;94479.13;5094231;28;20439;-86
2021/01/08 00:46:33;;;;;;;38.43;19.60;;;;;;;6.55;99.63;94515.97;5094418;28;20451;-87
2021/01/08 00:49:01;;;;;;;29.20;17.67;;;;;;;6.53;100.00;94508.25;5094259;28;20453;-85
2021/01/08 00:51:28;;;;;;;32.60;17.23;;;;;;;6.24;100.00;94465.31;5094392;28;20528;-86
2021/01/08 00:53:54;;;;;;;26.90;16.10;;;;;;;6.30;100.00;94501.31;5058930;28;20530;-87
2021/01/08 00:56:21;;;;;;;31.97;17.13;;;;;;;6.33;100.00;94496.69;5094005;28;20475;-86
2021/01/08 00:58:48;;;;;;;25.13;18.00;;;;;;;6.36;100.00;94493.03;5093953;28;20547;-85
2021/01/08 01:01:15;;;;;;;24.53;16.43;;;;;;;6.43;100.00;94495.09;5094106;28;20447;-87
2021/01/08 01:03:42;;;;;;;23.40;15.93;;;;;;;6.52;100.00;94498.78;5093933;28;20444;-86
2021/01/08 01:06:10;;;;;;;26.97;17.87;;;;;;;6.53;100.00;94490.84;5058710;28;20447;-85
2021/01/08 01:08:36;;;;;;;58.10;23.50;;;;;;;6.56;99.58;94507.19;5093980;28;20518;-87
2021/01/08 01:11:03;;;;;;;63.13;23.33;;;;;;;6.62;100.00;94507.56;5093801;28;20544;-85
2021/01/08 01:13:29;;;;;;;66.90;25.87;;;;;;;6.70;100.00;94509.59;5093955;28;20451;-86
2021/01/08 01:15:55;;;;;;;46.67;23.13;;;;;;;6.72;98.90;94498.13;5042235;28;20935;-86
2021/01/08 01:18:22;;;;;;;51.87;22.77;;;;;;;6.72;98.29;94502.50;5093738;28;20993;-86
2021/01/08 01:20:49;;;;;;;53.70;24.40;;;;;;;6.73;99.42;94499.78;5093626;28;20505;-86
2021/01/08 01:23:16;;;;;;;44.90;22.57;;;;;;;6.71;98.98;94493.84;5093733;28;20443;-86
2021/01/08 01:25:42;;;;;;;31.27;18.40;;;;;;;6.75;98.92;94495.25;5093591;28;20443;-87
2021/01/08 01:28:10;;;;;;;23.57;14.97;;;;;;;6.79;99.02;94478.44;5093741;28;20446;-86
2021/01/08 01:30:36;;;;;;;32.97;17.80;;;;;;;6.84;98.24;94494.56;5092827;28;20483;-86
2021/01/08 01:33:02;;;;;;;22.80;14.87;;;;;;;6.90;98.94;94476.78;5041670;28;20447;-87
2021/01/08 01:35:30;;;;;;;28.40;15.30;;;;;;;6.83;97.53;94485.06;5093809;28;20448;-86
2021/01/08 01:37:56;;;;;;;24.60;17.00;;;;;;;6.87;97.66;94490.03;5093467;28;20439;-87
2021/01/08 01:40:23;;;;;;;20.50;14.57;;;;;;;6.78;97.62;94466.34;5093394;28;20451;-86
2021/01/08 01:42:50;;;;;;;28.27;16.40;;;;;;;6.82;98.17;94487.78;5093385;28;20435;-86
2021/01/08 01:45:16;;;;;;;30.70;16.80;;;;;;;6.80;98.36;94468.84;5093329;28;20459;-87
2021/01/08 01:47:43;;;;;;;25.40;15.03;;;;;;;6.72;98.19;94460.78;5041660;28;20458;-87
2021/01/08 01:50:09;;;;;;;25.97;15.53;;;;;;;6.71;98.42;94465.16;5057932;28;20829;-86
2021/01/08 01:52:36;;;;;;;30.07;17.53;;;;;;;6.73;99.04;94480.69;5093602;28;20847;-87
2021/01/08 01:55:04;;;;;;;30.47;16.73;;;;;;;6.73;98.62;94467.66;5093251;28;20449;-87
2021/01/08 01:57:31;;;;;;;33.07;18.90;;;;;;;6.71;99.01;94469.56;5092784;28;20478;-86
2021/01/08 01:59:58;;;;;;;22.10;16.50;;;;;;;6.76;99.27;94477.84;5057874;28;20521;-87
2021/01/08 02:02:29;;;;;;;23.70;15.47;;;;;;;6.70;98.86;94466.13;5092954;28;20435;-87
2021/01/08 02:04:58;;;;;;;23.90;15.03;;;;;;;6.60;98.92;94452.09;5093069;28;20435;-86
2021/01/08 02:07:28;;;;;;;31.47;16.10;;;;;;;6.65;99.25;94480.41;5093185;28;20439;-86
2021/01/08 02:09:56;;;;;;;22.50;16.07;;;;;;;6.62;99.96;94454.59;5093154;28;20439;-87
2021/01/08 02:12:25;;;;;;;25.30;16.17;;;;;;;6.59;98.91;94460.88;5092780;28;20448;-86
2021/01/08 02:14:54;;;;;;;29.97;16.90;;;;;;;6.62;99.12;94463.25;5092845;28;20443;-87
2021/01/08 02:17:21;;;;;;;22.57;16.53;;;;;;;6.61;99.17;94448.53;5092717;28;20451;-87
2021/01/08 02:19:52;;;;;;;30.23;18.50;;;;;;;6.63;99.13;94449.25;5093349;28;20447;-86
2021/01/08 02:22:24;;;;;;;34.13;19.10;;;;;;;6.72;100.00;94455.56;5092943;28;20955;-87
2021/01/08 02:25:10;;;;;;;32.20;22.77;;;;;;;6.74;99.50;94443.25;5093028;28;20436;-86
2021/01/08 02:27:39;;;;;;;37.00;20.20;;;;;;;6.80;98.90;94453.19;5093116;28;20443;-86
2021/01/08 02:30:07;;;;;;;33.60;21.37;;;;;;;6.74;98.94;94436.25;5057981;28;20448;-87
2021/01/08 02:32:35;;;;;;;30.30;20.63;;;;;;;6.70;98.15;94424.41;5040937;28;20810;-87
2021/01/08 02:35:02;;;;;;;35.63;20.67;;;;;;;6.75;98.72;94439.69;5057523;28;21019;-86
2021/01/08 02:37:36;;;;;;;39.33;22.17;;;;;;;6.69;98.83;94411.47;5092701;28;20439;-85
2021/01/08 02:40:03;;;;;;;41.20;26.43;;;;;;;6.65;98.98;94418.72;5093402;28;20447;-87
2021/01/08 02:42:32;;;;;;;36.87;23.67;;;;;;;6.65;99.38;94394.38;5096902;28;20961;-87
2021/01/08 02:44:59;;;;;;;31.90;20.80;;;;;;;6.63;99.78;94414.53;5096710;28;20450;-86
2021/01/08 02:47:25;;;;;;;31.20;20.67;;;;;;;6.65;100.00;94405.69;5096599;28;20446;-86
2021/01/08 02:49:51;;;;;;;31.23;20.00;;;;;;;6.66;99.92;94411.72;5096831;28;20447;-86
2021/01/08 02:52:18;;;;;;;29.37;18.50;;;;;;;6.70;100.00;94411.34;5096740;28;20495;-87
2021/01/08 02:54:45;;;;;;;27.70;19.60;;;;;;;6.70;100.00;94406.16;5096875;28;20440;-87
2021/01/08 02:57:14;;;;;;;28.37;18.93;;;;;;;6.72;99.62;94398.22;5096661;28;20475;-85
2021/01/08 02:59:42;;;;;;;29.50;18.87;;;;;;;6.73;99.76;94405.91;5096286;28;20440;-87
2021/01/08 03:02:09;;;;;;;27.03;17.40;;;;;;;6.64;100.00;94390.13;5096648;28;20439;-86
2021/01/08 03:04:35;;;;;;;27.53;16.90;;;;;;;6.67;99.66;94406.38;5096581;28;20435;-86
2021/01/08 03:07:02;;;;;;;20.97;15.90;;;;;;;6.45;99.23;94385.53;5099428;28;20439;-86
2021/01/08 03:09:28;;;;;;;26.77;16.10;;;;;;;6.56;100.00;94405.53;5112162;28;20457;-86
2021/01/08 03:11:56;;;;;;;21.40;15.73;;;;;;;6.58;100.00;94412.28;5108519;28;20479;-86
2021/01/08 03:14:24;;;;;;;22.70;15.67;;;;;;;6.67;99.63;94403.78;5105526;28;20442;-87
2021/01/08 03:16:51;;;;;;;23.03;14.90;;;;;;;6.58;99.31;94394.03;5099839;28;20447;-88
2021/01/08 03:19:17;;;;;;;19.23;13.73;;;;;;;6.62;99.33;94386.81;5096112;28;20450;-87
2021/01/08 03:21:44;;;;;;;18.23;14.13;;;;;;;6.67;98.51;94402.94;5096025;28;20786;-86
2021/01/08 03:24:11;;;;;;;21.57;15.50;;;;;;;6.68;98.91;94391.56;5095815;28;20443;-87
2021/01/08 03:26:37;;;;;;;21.60;15.87;;;;;;;6.45;99.97;94386.34;5095917;28;20482;-87
2021/01/08 03:29:03;;;;;;;23.20;15.00;;;;;;;6.49;99.46;94381.72;5011112;28;20774;-86
2021/01/08 03:31:29;;;;;;;22.03;15.30;;;;;;;6.48;99.80;94385.28;5095833;28;20502;-86
2021/01/08 03:33:57;;;;;;;20.83;15.37;;;;;;;6.56;99.99;94371.66;5095999;28;20450;-87
2021/01/08 03:36:23;;;;;;;24.87;14.67;;;;;;;6.58;99.96;94369.75;5095750;28;20439;-87
2021/01/08 03:38:49;;;;;;;22.60;15.00;;;;;;;6.61;99.05;94362.53;5095537;28;20454;-86
2021/01/08 03:41:16;;;;;;;16.43;12.90;;;;;;;6.65;99.47;94355.28;5095990;28;20459;-86
2021/01/08 03:43:42;;;;;;;26.77;15.53;;;;;;;6.69;99.33;94372.38;5095582;28;20931;-86
2021/01/08 03:46:08;;;;;;;32.60;16.67;;;;;;;6.61;99.24;94359.09;5095648;28;20443;-86
2021/01/08 03:48:36;;;;;;;27.67;17.33;;;;;;;6.65;98.89;94363.09;5095664;28;20439;-87
2021/01/08 03:51:03;;;;;;;25.93;16.43;;;;;;;6.61;99.54;94346.88;5095718;28;20483;-86
2021/01/08 03:53:29;;;;;;;31.67;18.77;;;;;;;6.64;99.25;94341.41;5094998;28;20924;-87
2021/01/08 03:55:56;;;;;;;28.43;18.90;;;;;;;6.71;99.27;94334.81;5095527;28;20528;-86
2021/01/08 03:58:22;;;;;;;27.80;18.60;;;;;;;6.66;100.00;94325.69;5095463;28;20458;-86
2021/01/08 04:00:48;;;;;;;24.10;17.13;;;;;;;6.66;99.49;94331.72;5095369;28;20436;-85
2021/01/08 04:03:15;;;;;;;27.97;18.73;;;;;;;6.67;100.00;94333.38;5095487;28;20446;-87
2021/01/08 04:05:41;;;;;;;26.33;18.90;;;;;;;6.73;99.83;94324.25;5095223;28;20447;-86
2021/01/08 04:08:08;;;;;;;28.47;18.10;;;;;;;6.79;99.32;94327.19;5095328;28;20819;-86
2021/01/08 04:10:34;;;;;;;25.20;18.37;;;;;;;6.79;99.37;94332.41;5095030;28;20998;-87
2021/01/08 04:13:01;;;;;;;24.83;17.23;;;;;;;6.86;98.31;94321.50;5095307;28;20439;-85
2021/01/08 04:15:27;;;;;;;32.67;17.53;;;;;;;6.75;97.72;94297.09;5059763;28;20781;-87
2021/01/08 04:17:53;;;;;;;30.20;21.20;;;;;;;6.67;98.46;94322.13;5043151;28;20877;-86
2021/01/08 04:20:20;;;;;;;56.13;30.47;;;;;;;6.73;98.73;94280.75;5094828;28;20931;-87
2021/01/08 04:22:46;;;;;;;27.43;17.40;;;;;;;6.55;99.56;94287.41;5095222;28;20447;-86
2021/01/08 04:25:14;;;;;;;32.47;21.97;;;;;;;6.64;99.59;94304.94;5095023;28;20440;-84
2021/01/08 04:27:40;;;;;;;30.03;21.67;;;;;;;6.68;99.08;94290.72;5094743;28;20489;-87
2021/01/08 04:30:08;;;;;;;28.00;21.43;;;;;;;6.69;99.65;94270.69;5094743;28;20443;-86
2021/01/08 04:32:34;;;;;;;34.50;20.67;;;;;;;6.67;99.25;94285.63;5094679;28;20517;-87
2021/01/08 04:35:00;;;;;;;28.60;21.70;;;;;;;6.72;100.00;94288.69;5094717;28;20440;-87
2021/01/08 04:37:27;;;;;;;31.20;19.60;;;;;;;6.51;99.49;94249.50;5094898;28;20439;-86
2021/01/08 04:39:53;;;;;;;27.50;19.50;;;;;;;6.59;99.61;94267.97;5094620;28;20439;-87
2021/01/08 04:42:21;;;;;;;36.30;23.40;;;;;;;6.61;100.00;94271.28;5094418;28;20479;-87
2021/01/08 04:44:47;;;;;;;39.83;23.90;;;;;;;6.57;99.67;94259.44;5094534;28;20447;-87
2021/01/08 04:47:16;;;;;;;46.50;30.40;;;;;;;6.61;100.00;94240.00;5042421;28;20440;-86
2021/01/08 04:49:43;;;;;;;58.53;32.20;;;;;;;6.62;100.00;94246.03;5094258;28;20443;-86
2021/01/08 04:52:11;;;;;;;45.87;28.00;;;;;;;6.66;100.00;94271.78;5058853;28;20483;-87
2021/01/08 04:54:38;;;;;;;43.33;27.50;;;;;;;6.51;100.00;94215.63;5094524;28;20448;-87
2021/01/08 04:57:07;;;;;;;36.50;24.57;;;;;;;6.32;100.00;94270.97;5094226;28;21001;-86
2021/01/08 04:59:35;;;;;;;42.17;27.90;;;;;;;6.25;100.00;94235.09;5075214;28;20424;-86
2021/01/08 05:02:01;;;;;;;41.07;24.43;;;;;;;6.02;100.00;94196.06;5094177;28;20531;-86
2021/01/08 05:04:27;;;;;;;40.57;27.33;;;;;;;6.11;100.00;94231.81;5092825;28;20943;-87
2021/01/08 05:06:54;;;;;;;38.50;26.13;;;;;;;6.10;100.00;94245.78;5093942;28;20443;-86
2021/01/08 05:09:20;;;;;;;35.50;22.07;;;;;;;6.10;100.00;94230.16;5094064;28;20466;-86
2021/01/08 05:11:47;;;;;;;42.33;25.67;;;;;;;6.18;100.00;94242.56;5093696;28;20487;-86
2021/01/08 05:14:15;;;;;;;32.60;23.47;;;;;;;6.21;100.00;94245.75;5093927;28;20440;-84
2021/01/08 05:16:43;;;;;;;29.50;21.53;;;;;;;6.26;100.00;94245.41;5094122;28;20443;-86
2021/01/08 05:19:10;;;;;;;34.30;20.73;;;;;;;6.27;100.00;94233.19;5093710;28;20455;-85
2021/01/08 05:21:36;;;;;;;33.70;22.47;;;;;;;6.22;100.00;94242.22;5093911;28;20486;-87
2021/01/08 05:24:04;;;;;;;36.37;24.70;;;;;;;6.24;100.00;94277.72;5093825;28;20507;-86
2021/01/08 05:26:31;;;;;;;43.50;24.23;;;;;;;5.98;100.00;94212.88;5058487;28;20431;-86
2021/01/08 05:29:00;;;;;;;39.60;25.20;;;;;;;5.93;100.00;94228.03;5058461;28;20428;-86
2021/01/08 05:31:29;;;;;;;41.80;25.80;;;;;;;5.95;100.00;94246.97;5093746;28;20492;-86
2021/01/08 05:33:56;;;;;;;36.63;24.20;;;;;;;6.02;100.00;94219.50;5093688;28;20447;-85
2021/01/08 05:36:24;;;;;;;45.50;23.57;;;;;;;6.08;100.00;94231.22;5093293;28;20833;-86
2021/01/08 05:38:53;;;;;;;36.83;22.57;;;;;;;6.17;100.00;94236.53;5093627;28;20443;-85
2021/01/08 05:41:22;;;;;;;38.10;24.87;;;;;;;6.19;100.00;94213.81;5093697;28;20443;-85
2021/01/08 05:43:49;;;;;;;49.83;27.00;;;;;;;6.21;100.00;94231.91;5093462;28;20439;-86
2021/01/08 05:46:18;;;;;;;44.00;27.93;;;;;;;6.30;100.00;94220.75;5093394;28;20439;-83
2021/01/08 05:48:48;;;;;;;56.13;34.10;;;;;;;6.40;100.00;94236.53;5093936;28;20838;-87
2021/01/08 05:51:17;;;;;;;49.90;30.10;;;;;;;6.38;100.00;94207.16;5093682;28;20570;-86
2021/01/08 05:53:46;;;;;;;43.83;24.20;;;;;;;6.29;100.00;94244.34;5093638;28;20450;-84
2021/01/08 05:56:16;;;;;;;31.10;22.23;;;;;;;6.24;100.00;94195.19;5093502;28;20844;-86
2021/01/08 05:58:44;;;;;;;45.77;24.00;;;;;;;6.03;100.00;94204.69;5093184;28;20797;-87
2021/01/08 06:01:10;;;;;;;45.63;25.60;;;;;;;6.07;100.00;94240.81;5093222;28;20470;-86
2021/01/08 06:03:38;;;;;;;38.60;24.50;;;;;;;6.10;100.00;94227.56;5093611;28;20447;-86
2021/01/08 06:06:05;;;;;;;37.97;24.67;;;;;;;6.10;100.00;94231.94;5106934;28;20446;-86
2021/01/08 06:08:36;;;;;;;45.57;27.27;;;;;;;6.19;100.00;94234.63;5105056;28;20439;-86
2021/01/08 06:11:05;;;;;;;40.63;28.37;;;;;;;6.26;100.00;94223.72;5101160;28;20479;-86
2021/01/08 06:13:33;;;;;;;42.03;28.90;;;;;;;6.36;100.00;94240.28;5098687;28;20432;-86
2021/01/08 06:16:01;;;;;;;52.87;27.50;;;;;;;6.38;100.00;94228.00;5095602;28;20818;-86
2021/01/08 06:18:29;;;;;;;40.00;25.97;;;;;;;6.51;100.00;94226.06;5097120;28;20919;-86
2021/01/08 06:21:05;;;;;;;44.00;28.27;;;;;;;6.65;100.00;94219.72;5097221;28;20455;-84
2021/01/08 06:23:40;;;;;;;42.57;27.57;;;;;;;6.74;100.00;94208.59;5097378;28;20972;-86
2021/01/08 06:26:08;;;;;;;42.97;27.00;;;;;;;6.79;100.00;94241.16;5097263;28;20832;-86
2021/01/08 06:28:37;;;;;;;48.63;28.73;;;;;;;6.81;100.00;94210.56;5097265;28;20804;-87
2021/01/08 06:31:06;;;;;;;41.23;26.53;;;;;;;6.86;100.00;94198.94;5097231;28;20576;-86
2021/01/08 06:33:35;;;;;;;47.87;30.87;;;;;;;6.90;100.00;94198.56;5097655;28;20439;-86
2021/01/08 06:36:15;;;;;;;45.27;28.30;;;;;;;6.98;100.00;94201.38;5097267;28;20435;-86
2021/01/08 06:38:46;;;;;;;47.83;29.40;;;;;;;7.01;100.00;94205.50;5097042;28;20443;-86
2021/01/08 06:41:14;;;;;;;47.50;29.27;;;;;;;6.98;100.00;94224.84;5096838;28;20802;-86
2021/01/08 06:43:44;;;;;;;55.20;28.50;;;;;;;6.98;100.00;94190.13;5097113;28;20471;-86
2021/01/08 06:46:25;;;;;;;45.50;27.47;;;;;;;6.99;100.00;94202.22;5097287;28;20436;-86
2021/01/08 06:48:54;;;;;;;45.00;28.70;;;;;;;6.88;100.00;94228.31;5096825;28;20435;-86
2021/01/08 06:51:26;;;;;;;50.60;31.50;;;;;;;6.74;100.00;94212.03;5096660;28;20478;-85
2021/01/08 06:53:55;;;;;;;52.00;30.33;;;;;;;6.73;100.00;94212.16;5096591;28;20450;-87
2021/01/08 06:56:28;;;;;;;37.87;26.33;;;;;;;6.79;100.00;94229.91;5096685;28;20555;-86
2021/01/08 06:58:55;;;;;;;45.23;29.63;;;;;;;6.78;100.00;94239.50;5096372;28;20455;-86
2021/01/08 07:01:27;;;;;;;43.07;24.47;;;;;;;6.77;100.00;94214.38;5096912;28;20443;-86
2021/01/08 07:03:53;;;;;;;44.37;27.07;;;;;;;6.82;100.00;94233.06;5096491;28;20855;-85
2021/01/08 07:06:20;;;;;;;37.67;24.67;;;;;;;6.84;100.00;94193.84;5096616;28;20450;-86
2021/01/08 07:08:48;;;;;;;34.70;24.53;;;;;;;6.83;100.00;94228.69;5096793;28;20854;-86
2021/01/08 07:11:25;;;;;;;59.57;34.57;;;;;;;6.81;100.00;94209.75;5096127;28;20528;-86
2021/01/08 07:14:04;;;;;;;52.47;29.37;;;;;;;6.84;100.00;94217.31;5061262;28;20448;-86
2021/01/08 07:16:31;;;;;;;55.00;33.53;;;;;;;6.91;100.00;94234.09;5096635;28;20438;-86
2021/01/08 07:19:05;;;;;;;53.70;33.70;;;;;;;6.98;100.00;94211.00;5096484;28;20534;-87
2021/01/08 07:21:32;;;;;;;52.10;32.90;;;;;;;6.92;100.00;94227.94;5096402;28;20878;-86
2021/01/08 07:24:01;;;;;;;46.97;28.00;;;;;;;6.98;100.00;94237.91;5096029;28;20809;-85
2021/01/08 07:26:29;;;;;;;51.70;28.23;;;;;;;7.07;100.00;94229.31;5095951;28;20537;-86
2021/01/08 07:28:56;;;;;;;37.70;24.90;;;;;;;7.13;100.00;94238.41;5095556;28;20452;-86
2021/01/08 07:31:32;;;;;;;45.63;29.17;;;;;;;7.21;100.00;94225.56;5095917;28;20483;-87
2021/01/08 07:34:00;;;;;;;34.93;26.03;;;;;;;7.25;100.00;94221.78;5096380;28;20463;-86
2021/01/08 07:36:27;;;;;;;59.80;33.10;;;;;;;7.27;100.00;94198.16;5096002;28;20439;-86
2021/01/08 07:38:55;;;;;;;47.13;30.27;;;;;;;7.07;100.00;94192.78;5095871;28;20439;-86
2021/01/08 07:41:39;;;;;;;81.13;48.10;;;;;;;7.09;100.00;94209.16;5096283;28;20526;-86
2021/01/08 07:44:32;;;;;;;67.10;41.23;;;;;;;7.09;100.00;94192.66;5095932;28;20489;-86
2021/01/08 07:47:21;;;;;;;73.57;39.87;;;;;;;7.10;100.00;94220.41;5095781;28;20450;-86
2021/01/08 07:50:12;;;;;;;58.67;40.07;;;;;;;7.06;100.00;94164.22;5095774;28;20526;-85
2021/01/08 07:52:40;;;;;;;62.50;34.63;;;;;;;7.10;100.00;94178.66;5043135;28;20533;-85
2021/01/08 07:55:08;;;;;;;45.40;29.67;;;;;;;7.19;100.00;94171.84;5095688;28;20942;-86
2021/01/08 07:58:03;;;;;;;36.23;23.40;;;;;;;7.21;100.00;94175.97;5059994;28;20558;-86
2021/01/08 08:00:32;;;;;;;51.30;32.83;;;;;;;7.17;100.00;94192.84;5095277;28;20957;-86
2021/01/08 08:02:59;;;;;;;51.07;30.10;;;;;;;7.07;100.00;94182.34;5095448;28;20443;-87
2021/01/08 08:05:26;;;;;;;52.20;34.27;;;;;;;7.12;100.00;94180.19;5095362;28;20454;-86
2021/01/08 08:07:55;;;;;;;47.50;31.37;;;;;;;7.09;100.00;94164.78;5095194;28;20498;-86
2021/01/08 08:10:26;;;;;;;67.43;42.50;;;;;;;7.11;100.00;94126.38;5095193;28;20451;-86
2021/01/08 08:12:53;;;;;;;57.50;34.00;;;;;;;6.94;100.00;94149.56;5094717;28;20494;-86
2021/01/08 08:15:20;;;;;;;54.30;35.00;;;;;;;7.02;100.00;94139.34;5094950;28;20443;-85
2021/01/08 08:17:47;;;;;;;53.77;30.80;;;;;;;7.10;100.00;94184.72;5076041;28;20435;-86
2021/01/08 08:20:21;;;;;;;61.37;38.10;;;;;;;7.04;100.00;94130.44;5095020;28;20459;-85
2021/01/08 08:22:47;;;;;;;49.33;30.30;;;;;;;7.05;100.00;94146.91;5094927;28;20976;-86
2021/01/08 08:25:29;;;;;;;56.00;34.07;;;;;;;7.14;100.00;94146.97;5094640;28;20988;-85
2021/01/08 08:27:57;;;;;;;55.00;31.07;;;;;;;7.11;100.00;94120.31;5094842;28;20467;-85
2021/01/08 08:30:26;;;;;;;56.30;32.73;;;;;;;7.13;100.00;94149.72;5094724;28;20443;-86
2021/01/08 08:32:52;;;;;;;53.40;33.50;;;;;;;7.23;100.00;94145.41;5059340;28;20478;-86
2021/01/08 08:35:19;;;;;;;55.47;32.50;;;;;;;7.33;100.00;94138.44;5094526;28;20473;-85
2021/01/08 08:37:50;;;;;;;45.87;29.40;;;;;;;7.37;100.00;94134.63;5094435;28;20477;-84
2021/01/08 08:40:17;;;;;;;49.80;30.93;;;;;;;7.49;100.00;94144.97;5060486;28;20450;-86
2021/01/08 08:42:49;;;;;;;55.17;32.73;;;;;;;7.59;100.00;94124.97;5094390;28;20535;-84
2021/01/08 08:45:23;;;;;;;48.57;28.43;;;;;;;7.60;100.00;94119.63;5094296;28;20443;-86
2021/01/08 08:47:52;;;;;;;43.23;27.30;;;;;;;7.66;100.00;94124.31;5075463;28;20993;-85
2021/01/08 08:50:19;;;;;;;54.37;33.33;;;;;;;7.71;100.00;94103.03;5094128;28;20439;-85
2021/01/08 08:52:46;;;;;;;61.03;34.30;;;;;;;7.76;100.00;94121.72;5094386;28;20977;-86
2021/01/08 08:55:26;;;;;;;53.27;32.70;;;;;;;7.83;100.00;94109.00;5094401;28;20467;-86
2021/01/08 08:58:00;;;;;;;48.80;31.93;;;;;;;7.86;100.00;94124.38;5094273;28;20502;-86
2021/01/08 09:00:27;;;;;;;66.83;37.50;;;;;;;7.88;100.00;94115.47;5094095;28;20464;-85
2021/01/08 09:02:54;;;;;;;58.70;36.07;;;;;;;7.86;100.00;94122.59;5094247;28;20480;-86
2021/01/08 09:05:20;;;;;;;55.70;35.43;;;;;;;7.87;100.00;94123.44;5094600;28;20523;-86
2021/01/08 09:07:51;;;;;;;62.73;33.47;;;;;;;7.88;100.00;94123.28;5108038;28;20443;-86
2021/01/08 09:10:24;;;;;;;54.10;33.30;;;;;;;7.82;100.00;94079.44;5106533;28;20443;-86
2021/01/08 09:12:57;;;;;;;49.80;30.90;;;;;;;7.89;100.00;94114.50;5097712;28;20483;-84
2021/01/08 09:15:27;;;;;;;66.00;35.20;;;;;;;7.88;100.00;94115.47;5097406;28;20504;-86
2021/01/08 09:18:05;;;;;;;65.73;38.07;;;;;;;7.92;100.00;94114.22;5094212;28;20813;-86
2021/01/08 09:20:33;;;;;;;55.23;35.30;;;;;;;7.92;100.00;94095.94;5093859;28;20446;-86
2021/01/08 09:23:01;;;;;;;56.57;33.23;;;;;;;7.96;100.00;94113.00;5093646;28;20967;-86
2021/01/08 09:25:28;;;;;;;55.90;33.33;;;;;;;8.02;100.00;94119.47;5093814;28;20464;-85
2021/01/08 09:27:54;;;;;;;63.13;34.43;;;;;;;8.02;100.00;94109.84;5094047;28;20454;-86
2021/01/08 09:30:22;;;;;;;59.10;34.00;;;;;;;8.01;100.00;94092.53;5094332;28;20440;-86
2021/01/08 09:32:48;;;;;;;57.13;36.47;;;;;;;8.11;100.00;94095.19;5042459;28;20480;-87
2021/01/08 09:35:16;;;;;;;59.40;31.93;;;;;;;8.23;100.00;94093.25;5093856;28;20444;-87
2021/01/08 09:37:49;;;;;;;55.17;32.40;;;;;;;8.30;100.00;94097.78;5093663;28;20437;-86
2021/01/08 09:40:17;;;;;;;54.60;31.97;;;;;;;8.41;100.00;94107.34;5093932;28;20448;-87
2021/01/08 09:42:44;;;;;;;53.20;33.47;;;;;;;8.37;100.00;94090.25;5042485;28;20439;-86
2021/01/08 09:45:21;;;;;;;55.73;32.90;;;;;;;8.42;100.00;94098.53;5094127;28;20448;-86
2021/01/08 09:47:48;;;;;;;66.53;37.23;;;;;;;8.47;100.00;94098.13;5093675;28;20448;-87
2021/01/08 09:50:29;;;;;;;62.70;37.23;;;;;;;8.46;100.00;94086.03;5092915;28;20499;-86
2021/01/08 09:52:58;;;;;;;54.70;33.77;;;;;;;8.53;100.00;94081.88;5093297;28;20538;-87
2021/01/08 09:55:27;;;;;;;59.00;33.60;;;;;;;8.61;100.00;94082.84;5093245;28;20484;-87
2021/01/08 09:58:01;;;;;;;49.50;32.00;;;;;;;8.60;100.00;94055.03;5093342;28;20444;-87
2021/01/08 10:00:29;;;;;;;55.57;32.77;;;;;;;8.64;100.00;94079.94;5093217;28;20469;-87
2021/01/08 10:02:57;;;;;;;53.80;32.90;;;;;;;8.72;100.00;94071.44;5093378;28;20920;-87
2021/01/08 10:05:31;;;;;;;52.10;30.93;;;;;;;8.81;100.00;94043.59;5092987;28;20926;-87
2021/01/08 10:07:59;;;;;;;54.33;33.53;;;;;;;8.89;100.00;94041.09;5093246;28;20531;-87
2021/01/08 10:10:43;;;;;;;57.87;36.40;;;;;;;8.94;100.00;94025.81;5093182;28;20516;-86
2021/01/08 10:13:40;;;;;;;54.83;35.07;;;;;;;9.05;100.00;94033.50;5093589;28;20455;-86
2021/01/08 10:16:09;;;;;;;77.40;39.70;;;;;;;9.07;100.00;94028.94;5051979;28;20451;-86
2021/01/08 10:18:37;;;;;;;52.00;32.30;;;;;;;9.14;100.00;94019.56;5052230;28;20443;-87
2021/01/08 10:21:05;;;;;;;60.10;34.43;;;;;;;9.21;100.00;93997.06;5018616;28;20970;-88
2021/01/08 10:23:38;;;;;;;58.13;34.70;;;;;;;9.25;100.00;94005.47;5051515;28;20495;-87
2021/01/08 10:26:11;;;;;;;54.73;36.20;;;;;;;9.38;100.00;94003.34;5050651;28;20532;-86
2021/01/08 10:28:47;;;;;;;78.60;49.77;;;;;;;9.48;100.00;94021.63;5017768;28;20450;-87
2021/01/08 10:31:14;;;;;;;72.30;43.00;;;;;;;9.55;100.00;93984.25;5017513;28;20879;-87
2021/01/08 10:33:41;;;;;;;67.13;41.37;;;;;;;9.60;100.00;94002.97;5050888;28;20513;-86
2021/01/08 10:36:09;;;;;;;63.40;37.37;;;;;;;9.64;100.00;93993.03;5050563;28;20439;-87
2021/01/08 10:38:35;;;;;;;57.03;28.27;;;;;;;9.71;100.00;94001.13;5050477;28;20444;-87
2021/01/08 10:41:01;;;;;;;44.70;29.83;;;;;;;9.72;100.00;94003.59;5077985;28;20438;-86
2021/01/08 10:43:29;;;;;;;39.87;25.43;;;;;;;9.73;100.00;93984.28;5093289;28;20458;-86
2021/01/08 10:45:55;;;;;;;44.87;26.63;;;;;;;9.76;100.00;93983.16;5092690;28;20450;-87
2021/01/08 10:48:21;;;;;;;40.20;27.40;;;;;;;9.81;100.00;93980.91;5092754;28;20450;-87
2021/01/08 10:50:48;;;;;;;35.53;25.43;;;;;;;9.92;100.00;93973.69;5093385;28;20446;-85
2021/01/08 10:53:15;;;;;;;37.30;26.17;;;;;;;9.97;100.00;93967.16;5092695;28;20502;-87
2021/01/08 10:55:41;;;;;;;42.40;24.70;;;;;;;10.10;100.00;93978.09;5092683;28;20811;-86
2021/01/08 10:58:07;;;;;;;38.20;24.00;;;;;;;10.14;100.00;93961.94;5092771;28;20504;-87
2021/01/08 11:00:34;;;;;;;37.53;23.77;;;;;;;10.16;100.00;93970.47;5092624;28;20436;-87
2021/01/08 11:03:00;;;;;;;37.60;20.63;;;;;;;10.22;100.00;93969.06;5096173;28;20445;-86
2021/01/08 11:05:26;;;;;;;35.50;21.30;;;;;;;10.08;100.00;93966.94;5096470;28;20444;-87
2021/01/08 11:07:53;;;;;;;34.30;21.70;;;;;;;10.28;100.00;93957.16;5096367;28;20440;-86
2021/01/08 11:10:20;;;;;;;30.97;20.80;;;;;;;10.39;100.00;93956.91;5096627;28;20751;-87
2021/01/08 11:12:46;;;;;;;26.23;18.10;;;;;;;10.32;100.00;93943.59;5096405;28;20574;-86
2021/01/08 11:15:13;;;;;;;29.80;19.33;;;;;;;10.26;100.00;93938.13;5096517;28;20445;-86
2021/01/08 11:17:40;;;;;;;28.03;18.00;;;;;;;10.39;100.00;93949.88;5061081;28;20451;-87
2021/01/08 11:20:09;;;;;;;28.10;19.10;;;;;;;10.48;100.00;93948.16;5096188;28;20810;-86
2021/01/08 11:22:35;;;;;;;25.60;16.80;;;;;;;10.45;100.00;93930.09;5096259;28;20452;-86
2021/01/08 11:25:02;;;;;;;34.97;20.10;;;;;;;10.41;100.00;93913.03;5095983;28;20439;-86
2021/01/08 11:27:29;;;;;;;26.50;17.83;;;;;;;10.49;100.00;93923.56;5096612;28;20761;-86